sensor_id;sensor_type;location;lat;lon;timestamp;P1;durP1;ratioP1;P2;durP2;ratioP2
5127;SDS011;2582;48.770;9.190;2023-02-16T00:01:41;18.77;;;14.93;;
5127;SDS011;2582;48.770;9.190;2023-02-16T00:04:12;19.50;;;15.47;;
5127;SDS011;2582;48.770;9.190;2023-02-16T00:06:43;19.60;;;15.63;;
5127;SDS011;2582;48.770;9.190;2023-02-16T00:09:09;20.50;;;16.30;;
5127;SDS011;2582;48.770;9.190;2023-02-16T00:11:35;17.37;;;15.13;;
5127;SDS011;2582;48.770;9.190;2023-02-16T00:14:20;18.53;;;15.47;;
5127;SDS011;2582;48.770;9.190;2023-02-16T00:16:48;19.73;;;13.87;;
5127;SDS011;2582;48.770;9.190;2023-02-16T00:19:21;22.63;;;15.60;;
5127;SDS011;2582;48.770;9.190;2023-02-16T00:21:47;18.27;;;16.10;;
5127;SDS011;2582;48.770;9.190;2023-02-16T00:24:14;20.17;;;14.70;;
5127;SDS011;2582;48.770;9.190;2023-02-16T00:26:40;18.43;;;14.80;;
5127;SDS011;2582;48.770;9.190;2023-02-16T00:29:09;16.20;;;14.37;;
5127;SDS011;2582;48.770;9.190;2023-02-16T00:31:39;15.70;;;13.93;;
5127;SDS011;2582;48.770;9.190;2023-02-16T00:34:26;16.50;;;13.47;;
5127;SDS011;2582;48.770;9.190;2023-02-16T00:36:52;14.73;;;12.90;;
5127;SDS011;2582;48.770;9.190;2023-02-16T00:39:18;18.90;;;12.67;;
5127;SDS011;2582;48.770;9.190;2023-02-16T00:41:44;18.70;;;13.47;;
5127;SDS011;2582;48.770;9.190;2023-02-16T00:46:56;15.73;;;14.00;;
5127;SDS011;2582;48.770;9.190;2023-02-16T00:49:23;14.97;;;13.37;;
5127;SDS011;2582;48.770;9.190;2023-02-16T00:51:48;16.50;;;13.20;;
5127;SDS011;2582;48.770;9.190;2023-02-16T00:54:14;16.83;;;13.20;;
5127;SDS011;2582;48.770;9.190;2023-02-16T00:56:40;17.90;;;13.70;;
5127;SDS011;2582;48.770;9.190;2023-02-16T00:59:14;14.17;;;12.60;;
5127;SDS011;2582;48.770;9.190;2023-02-16T01:01:43;15.53;;;11.63;;
5127;SDS011;2582;48.770;9.190;2023-02-16T01:04:09;16.40;;;13.17;;
5127;SDS011;2582;48.770;9.190;2023-02-16T01:06:44;16.73;;;13.37;;
5127;SDS011;2582;48.770;9.190;2023-02-16T01:09:28;16.97;;;13.57;;
5127;SDS011;2582;48.770;9.190;2023-02-16T01:12:13;14.47;;;12.33;;
5127;SDS011;2582;48.770;9.190;2023-02-16T01:14:41;13.93;;;12.50;;
5127;SDS011;2582;48.770;9.190;2023-02-16T01:17:09;19.33;;;13.70;;
5127;SDS011;2582;48.770;9.190;2023-02-16T01:19:35;14.43;;;12.93;;
5127;SDS011;2582;48.770;9.190;2023-02-16T01:22:00;15.57;;;13.13;;
5127;SDS011;2582;48.770;9.190;2023-02-16T01:24:26;19.00;;;13.83;;
5127;SDS011;2582;48.770;9.190;2023-02-16T01:26:51;13.80;;;12.30;;
5127;SDS011;2582;48.770;9.190;2023-02-16T01:29:18;17.60;;;13.83;;
5127;SDS011;2582;48.770;9.190;2023-02-16T01:31:45;14.13;;;12.33;;
5127;SDS011;2582;48.770;9.190;2023-02-16T01:34:11;15.03;;;13.00;;
5127;SDS011;2582;48.770;9.190;2023-02-16T01:36:39;17.30;;;12.60;;
5127;SDS011;2582;48.770;9.190;2023-02-16T01:39:08;19.50;;;14.50;;
5127;SDS011;2582;48.770;9.190;2023-02-16T01:44:24;16.93;;;14.17;;
5127;SDS011;2582;48.770;9.190;2023-02-16T01:49:53;16.13;;;12.67;;
5127;SDS011;2582;48.770;9.190;2023-02-16T01:57:48;16.17;;;12.93;;
5127;SDS011;2582;48.770;9.190;2023-02-16T02:03:15;18.50;;;13.93;;
5127;SDS011;2582;48.770;9.190;2023-02-16T02:06:02;15.50;;;13.43;;
5127;SDS011;2582;48.770;9.190;2023-02-16T02:11:11;15.73;;;13.37;;
5127;SDS011;2582;48.770;9.190;2023-02-16T02:13:46;16.60;;;13.07;;
5127;SDS011;2582;48.770;9.190;2023-02-16T02:16:19;18.00;;;14.30;;
5127;SDS011;2582;48.770;9.190;2023-02-16T02:18:46;17.37;;;12.27;;
5127;SDS011;2582;48.770;9.190;2023-02-16T02:21:25;16.23;;;13.33;;
5127;SDS011;2582;48.770;9.190;2023-02-16T02:27:34;17.07;;;12.87;;
5127;SDS011;2582;48.770;9.190;2023-02-16T02:30:17;14.50;;;12.37;;
5127;SDS011;2582;48.770;9.190;2023-02-16T02:33:08;15.60;;;13.20;;
5127;SDS011;2582;48.770;9.190;2023-02-16T02:35:51;15.57;;;13.67;;
5127;SDS011;2582;48.770;9.190;2023-02-16T02:38:33;15.30;;;12.50;;
5127;SDS011;2582;48.770;9.190;2023-02-16T02:41:18;15.03;;;11.60;;
5127;SDS011;2582;48.770;9.190;2023-02-16T02:44:26;13.70;;;10.43;;
5127;SDS011;2582;48.770;9.190;2023-02-16T02:46:53;14.37;;;11.83;;
5127;SDS011;2582;48.770;9.190;2023-02-16T02:49:19;12.00;;;10.03;;
5127;SDS011;2582;48.770;9.190;2023-02-16T02:51:46;16.63;;;11.40;;
5127;SDS011;2582;48.770;9.190;2023-02-16T02:54:33;14.20;;;11.80;;
5127;SDS011;2582;48.770;9.190;2023-02-16T03:06:09;12.83;;;10.87;;
5127;SDS011;2582;48.770;9.190;2023-02-16T03:08:45;12.07;;;10.83;;
5127;SDS011;2582;48.770;9.190;2023-02-16T03:11:25;11.57;;;10.20;;
5127;SDS011;2582;48.770;9.190;2023-02-16T03:16:43;12.23;;;10.30;;
5127;SDS011;2582;48.770;9.190;2023-02-16T03:19:12;13.00;;;10.93;;
5127;SDS011;2582;48.770;9.190;2023-02-16T03:21:59;11.73;;;9.97;;
5127;SDS011;2582;48.770;9.190;2023-02-16T03:24:44;15.90;;;12.20;;
5127;SDS011;2582;48.770;9.190;2023-02-16T03:27:30;11.83;;;9.67;;
5127;SDS011;2582;48.770;9.190;2023-02-16T03:30:18;12.63;;;10.40;;
5127;SDS011;2582;48.770;9.190;2023-02-16T03:32:45;10.83;;;9.67;;
5127;SDS011;2582;48.770;9.190;2023-02-16T03:35:12;12.00;;;8.63;;
5127;SDS011;2582;48.770;9.190;2023-02-16T03:37:38;10.50;;;9.40;;
5127;SDS011;2582;48.770;9.190;2023-02-16T03:40:06;15.00;;;9.40;;
5127;SDS011;2582;48.770;9.190;2023-02-16T03:42:54;12.77;;;11.07;;
5127;SDS011;2582;48.770;9.190;2023-02-16T03:45:22;11.97;;;10.40;;
5127;SDS011;2582;48.770;9.190;2023-02-16T03:47:49;12.87;;;11.33;;
5127;SDS011;2582;48.770;9.190;2023-02-16T03:50:14;11.47;;;10.27;;
5127;SDS011;2582;48.770;9.190;2023-02-16T03:52:40;12.37;;;9.90;;
5127;SDS011;2582;48.770;9.190;2023-02-16T03:55:05;12.30;;;11.00;;
5127;SDS011;2582;48.770;9.190;2023-02-16T03:57:31;14.90;;;12.17;;
5127;SDS011;2582;48.770;9.190;2023-02-16T03:59:57;12.70;;;10.63;;
5127;SDS011;2582;48.770;9.190;2023-02-16T04:02:22;15.57;;;11.67;;
5127;SDS011;2582;48.770;9.190;2023-02-16T04:04:49;12.60;;;10.90;;
5127;SDS011;2582;48.770;9.190;2023-02-16T04:07:14;12.20;;;10.00;;
5127;SDS011;2582;48.770;9.190;2023-02-16T04:09:40;12.30;;;10.80;;
5127;SDS011;2582;48.770;9.190;2023-02-16T04:12:06;13.63;;;10.80;;
5127;SDS011;2582;48.770;9.190;2023-02-16T04:15:08;12.90;;;10.73;;
5127;SDS011;2582;48.770;9.190;2023-02-16T04:17:38;12.03;;;10.27;;
5127;SDS011;2582;48.770;9.190;2023-02-16T04:20:04;11.23;;;9.50;;
5127;SDS011;2582;48.770;9.190;2023-02-16T04:22:31;13.00;;;10.23;;
5127;SDS011;2582;48.770;9.190;2023-02-16T04:24:57;16.10;;;12.87;;
5127;SDS011;2582;48.770;9.190;2023-02-16T04:27:22;13.20;;;10.80;;
5127;SDS011;2582;48.770;9.190;2023-02-16T04:29:48;12.77;;;10.80;;
5127;SDS011;2582;48.770;9.190;2023-02-16T04:32:13;15.80;;;11.30;;
5127;SDS011;2582;48.770;9.190;2023-02-16T04:34:39;14.33;;;11.33;;
5127;SDS011;2582;48.770;9.190;2023-02-16T04:37:04;15.63;;;11.67;;
5127;SDS011;2582;48.770;9.190;2023-02-16T04:39:30;14.80;;;10.90;;
5127;SDS011;2582;48.770;9.190;2023-02-16T04:41:56;14.80;;;11.37;;
5127;SDS011;2582;48.770;9.190;2023-02-16T04:44:22;12.70;;;9.40;;
5127;SDS011;2582;48.770;9.190;2023-02-16T04:46:47;12.53;;;10.67;;
5127;SDS011;2582;48.770;9.190;2023-02-16T04:49:13;12.23;;;10.03;;
5127;SDS011;2582;48.770;9.190;2023-02-16T04:51:39;13.97;;;10.23;;
5127;SDS011;2582;48.770;9.190;2023-02-16T04:54:05;12.40;;;10.20;;
5127;SDS011;2582;48.770;9.190;2023-02-16T04:56:30;14.23;;;11.00;;
5127;SDS011;2582;48.770;9.190;2023-02-16T04:58:56;12.30;;;11.00;;
5127;SDS011;2582;48.770;9.190;2023-02-16T05:01:23;13.10;;;10.83;;
5127;SDS011;2582;48.770;9.190;2023-02-16T05:03:49;11.50;;;10.33;;
5127;SDS011;2582;48.770;9.190;2023-02-16T05:06:15;17.00;;;10.90;;
5127;SDS011;2582;48.770;9.190;2023-02-16T05:08:41;13.03;;;9.60;;
5127;SDS011;2582;48.770;9.190;2023-02-16T05:11:06;10.93;;;9.73;;
5127;SDS011;2582;48.770;9.190;2023-02-16T05:13:51;13.33;;;9.60;;
5127;SDS011;2582;48.770;9.190;2023-02-16T05:16:35;12.03;;;10.53;;
5127;SDS011;2582;48.770;9.190;2023-02-16T05:19:00;16.30;;;11.63;;
5127;SDS011;2582;48.770;9.190;2023-02-16T05:21:26;11.93;;;10.23;;
5127;SDS011;2582;48.770;9.190;2023-02-16T05:23:54;12.10;;;10.43;;
5127;SDS011;2582;48.770;9.190;2023-02-16T05:26:20;14.40;;;10.40;;
5127;SDS011;2582;48.770;9.190;2023-02-16T05:28:45;14.83;;;10.47;;
5127;SDS011;2582;48.770;9.190;2023-02-16T05:31:11;10.33;;;8.90;;
5127;SDS011;2582;48.770;9.190;2023-02-16T05:33:36;11.77;;;10.33;;
5127;SDS011;2582;48.770;9.190;2023-02-16T05:36:02;15.23;;;11.37;;
5127;SDS011;2582;48.770;9.190;2023-02-16T05:38:28;16.73;;;12.13;;
5127;SDS011;2582;48.770;9.190;2023-02-16T05:40:53;14.33;;;11.27;;
5127;SDS011;2582;48.770;9.190;2023-02-16T05:43:19;11.20;;;9.90;;
5127;SDS011;2582;48.770;9.190;2023-02-16T05:45:44;13.20;;;10.50;;
5127;SDS011;2582;48.770;9.190;2023-02-16T05:48:10;16.07;;;10.50;;
5127;SDS011;2582;48.770;9.190;2023-02-16T05:50:35;12.60;;;10.43;;
5127;SDS011;2582;48.770;9.190;2023-02-16T05:53:01;14.43;;;11.27;;
5127;SDS011;2582;48.770;9.190;2023-02-16T05:55:27;13.07;;;10.30;;
5127;SDS011;2582;48.770;9.190;2023-02-16T05:57:52;12.43;;;10.00;;
5127;SDS011;2582;48.770;9.190;2023-02-16T06:00:18;15.00;;;10.47;;
5127;SDS011;2582;48.770;9.190;2023-02-16T06:02:43;14.80;;;11.47;;
5127;SDS011;2582;48.770;9.190;2023-02-16T06:05:09;15.00;;;11.47;;
5127;SDS011;2582;48.770;9.190;2023-02-16T06:07:35;13.53;;;10.80;;
5127;SDS011;2582;48.770;9.190;2023-02-16T06:10:00;13.47;;;11.20;;
5127;SDS011;2582;48.770;9.190;2023-02-16T06:12:26;13.77;;;11.87;;
5127;SDS011;2582;48.770;9.190;2023-02-16T06:14:51;13.87;;;11.10;;
5127;SDS011;2582;48.770;9.190;2023-02-16T06:17:17;14.27;;;10.70;;
5127;SDS011;2582;48.770;9.190;2023-02-16T06:19:42;15.00;;;11.77;;
5127;SDS011;2582;48.770;9.190;2023-02-16T06:22:08;17.83;;;12.80;;
5127;SDS011;2582;48.770;9.190;2023-02-16T06:24:33;14.83;;;11.10;;
5127;SDS011;2582;48.770;9.190;2023-02-16T06:26:59;15.67;;;11.83;;
5127;SDS011;2582;48.770;9.190;2023-02-16T06:29:24;16.40;;;11.87;;
5127;SDS011;2582;48.770;9.190;2023-02-16T06:31:50;19.83;;;13.40;;
5127;SDS011;2582;48.770;9.190;2023-02-16T06:34:16;17.27;;;11.80;;
5127;SDS011;2582;48.770;9.190;2023-02-16T06:36:41;17.20;;;12.60;;
5127;SDS011;2582;48.770;9.190;2023-02-16T06:39:07;16.50;;;12.60;;
5127;SDS011;2582;48.770;9.190;2023-02-16T06:41:32;15.40;;;12.63;;
5127;SDS011;2582;48.770;9.190;2023-02-16T06:44:09;13.67;;;10.17;;
5127;SDS011;2582;48.770;9.190;2023-02-16T06:46:39;14.13;;;11.57;;
5127;SDS011;2582;48.770;9.190;2023-02-16T06:49:05;18.10;;;12.17;;
5127;SDS011;2582;48.770;9.190;2023-02-16T06:51:31;17.10;;;12.83;;
5127;SDS011;2582;48.770;9.190;2023-02-16T06:53:57;14.20;;;10.77;;
5127;SDS011;2582;48.770;9.190;2023-02-16T06:56:23;14.73;;;13.00;;
5127;SDS011;2582;48.770;9.190;2023-02-16T06:58:49;17.40;;;12.70;;
5127;SDS011;2582;48.770;9.190;2023-02-16T07:01:15;12.47;;;11.10;;
5127;SDS011;2582;48.770;9.190;2023-02-16T07:03:47;14.53;;;11.10;;
5127;SDS011;2582;48.770;9.190;2023-02-16T07:06:14;15.20;;;12.93;;
5127;SDS011;2582;48.770;9.190;2023-02-16T07:08:39;17.53;;;13.63;;
5127;SDS011;2582;48.770;9.190;2023-02-16T07:11:05;14.93;;;12.57;;
5127;SDS011;2582;48.770;9.190;2023-02-16T07:13:30;12.97;;;10.73;;
5127;SDS011;2582;48.770;9.190;2023-02-16T07:16:00;13.80;;;12.00;;
5127;SDS011;2582;48.770;9.190;2023-02-16T07:18:26;16.50;;;12.27;;
5127;SDS011;2582;48.770;9.190;2023-02-16T07:20:52;16.00;;;12.67;;
5127;SDS011;2582;48.770;9.190;2023-02-16T07:23:17;15.33;;;11.93;;
5127;SDS011;2582;48.770;9.190;2023-02-16T07:25:43;15.73;;;12.87;;
5127;SDS011;2582;48.770;9.190;2023-02-16T07:28:09;15.17;;;12.17;;
5127;SDS011;2582;48.770;9.190;2023-02-16T07:30:34;13.70;;;11.17;;
5127;SDS011;2582;48.770;9.190;2023-02-16T07:33:00;13.07;;;11.70;;
5127;SDS011;2582;48.770;9.190;2023-02-16T07:35:26;14.20;;;12.23;;
5127;SDS011;2582;48.770;9.190;2023-02-16T07:37:51;19.67;;;14.30;;
5127;SDS011;2582;48.770;9.190;2023-02-16T07:40:17;22.50;;;16.80;;
5127;SDS011;2582;48.770;9.190;2023-02-16T07:42:43;21.73;;;16.00;;
5127;SDS011;2582;48.770;9.190;2023-02-16T07:45:08;18.27;;;14.10;;
5127;SDS011;2582;48.770;9.190;2023-02-16T07:47:34;20.80;;;13.23;;
5127;SDS011;2582;48.770;9.190;2023-02-16T07:49:59;18.70;;;13.97;;
5127;SDS011;2582;48.770;9.190;2023-02-16T07:52:25;18.33;;;14.03;;
5127;SDS011;2582;48.770;9.190;2023-02-16T07:54:55;15.50;;;13.73;;
5127;SDS011;2582;48.770;9.190;2023-02-16T07:57:21;17.87;;;14.13;;
5127;SDS011;2582;48.770;9.190;2023-02-16T07:59:49;18.50;;;14.00;;
5127;SDS011;2582;48.770;9.190;2023-02-16T08:02:16;17.10;;;14.53;;
5127;SDS011;2582;48.770;9.190;2023-02-16T08:04:43;25.03;;;16.53;;
5127;SDS011;2582;48.770;9.190;2023-02-16T08:07:10;24.70;;;14.30;;
5127;SDS011;2582;48.770;9.190;2023-02-16T08:09:37;17.97;;;13.63;;
5127;SDS011;2582;48.770;9.190;2023-02-16T08:12:03;19.33;;;15.00;;
5127;SDS011;2582;48.770;9.190;2023-02-16T08:14:28;22.00;;;14.70;;
5127;SDS011;2582;48.770;9.190;2023-02-16T08:16:54;19.80;;;14.53;;
5127;SDS011;2582;48.770;9.190;2023-02-16T08:19:19;19.00;;;14.23;;
5127;SDS011;2582;48.770;9.190;2023-02-16T08:21:45;18.70;;;14.90;;
5127;SDS011;2582;48.770;9.190;2023-02-16T08:24:13;22.80;;;16.40;;
5127;SDS011;2582;48.770;9.190;2023-02-16T08:26:39;27.47;;;16.40;;
5127;SDS011;2582;48.770;9.190;2023-02-16T08:29:07;22.40;;;15.43;;
5127;SDS011;2582;48.770;9.190;2023-02-16T08:31:37;23.20;;;15.63;;
5127;SDS011;2582;48.770;9.190;2023-02-16T08:34:03;21.63;;;15.50;;
5127;SDS011;2582;48.770;9.190;2023-02-16T08:36:33;17.87;;;13.93;;
5127;SDS011;2582;48.770;9.190;2023-02-16T08:39:01;19.13;;;14.40;;
5127;SDS011;2582;48.770;9.190;2023-02-16T08:41:32;18.30;;;13.10;;
5127;SDS011;2582;48.770;9.190;2023-02-16T08:43:59;19.50;;;15.80;;
5127;SDS011;2582;48.770;9.190;2023-02-16T08:46:26;17.50;;;14.23;;
5127;SDS011;2582;48.770;9.190;2023-02-16T08:48:56;22.27;;;15.43;;
5127;SDS011;2582;48.770;9.190;2023-02-16T08:51:24;19.70;;;15.63;;
5127;SDS011;2582;48.770;9.190;2023-02-16T08:53:51;20.43;;;16.77;;
5127;SDS011;2582;48.770;9.190;2023-02-16T08:56:17;21.00;;;17.13;;
5127;SDS011;2582;48.770;9.190;2023-02-16T08:58:44;23.30;;;17.00;;
5127;SDS011;2582;48.770;9.190;2023-02-16T09:01:13;28.13;;;16.60;;
5127;SDS011;2582;48.770;9.190;2023-02-16T09:03:42;18.83;;;16.37;;
5127;SDS011;2582;48.770;9.190;2023-02-16T09:06:10;21.90;;;16.23;;
5127;SDS011;2582;48.770;9.190;2023-02-16T09:08:37;20.50;;;16.83;;
5127;SDS011;2582;48.770;9.190;2023-02-16T09:11:08;17.93;;;16.03;;
5127;SDS011;2582;48.770;9.190;2023-02-16T09:13:36;19.10;;;17.07;;
5127;SDS011;2582;48.770;9.190;2023-02-16T09:16:04;22.90;;;17.00;;
5127;SDS011;2582;48.770;9.190;2023-02-16T09:18:34;20.27;;;17.47;;
5127;SDS011;2582;48.770;9.190;2023-02-16T09:21:04;20.80;;;17.00;;
5127;SDS011;2582;48.770;9.190;2023-02-16T09:23:34;18.57;;;16.50;;
5127;SDS011;2582;48.770;9.190;2023-02-16T09:26:00;21.83;;;16.53;;
5127;SDS011;2582;48.770;9.190;2023-02-16T09:28:26;22.13;;;18.60;;
5127;SDS011;2582;48.770;9.190;2023-02-16T09:30:53;20.43;;;17.37;;
5127;SDS011;2582;48.770;9.190;2023-02-16T09:33:19;22.53;;;16.77;;
5127;SDS011;2582;48.770;9.190;2023-02-16T09:35:45;22.10;;;18.70;;
5127;SDS011;2582;48.770;9.190;2023-02-16T09:38:11;23.47;;;18.20;;
5127;SDS011;2582;48.770;9.190;2023-02-16T09:40:40;19.93;;;14.70;;
5127;SDS011;2582;48.770;9.190;2023-02-16T09:43:07;15.13;;;13.10;;
5127;SDS011;2582;48.770;9.190;2023-02-16T09:45:47;11.20;;;10.00;;
5127;SDS011;2582;48.770;9.190;2023-02-16T09:48:20;19.17;;;14.90;;
5127;SDS011;2582;48.770;9.190;2023-02-16T09:50:57;16.00;;;11.83;;
5127;SDS011;2582;48.770;9.190;2023-02-16T09:53:35;12.93;;;10.23;;
5127;SDS011;2582;48.770;9.190;2023-02-16T09:58:56;11.43;;;9.43;;
5127;SDS011;2582;48.770;9.190;2023-02-16T10:04:32;11.43;;;10.17;;
5127;SDS011;2582;48.770;9.190;2023-02-16T10:07:38;15.07;;;10.47;;
5127;SDS011;2582;48.770;9.190;2023-02-16T10:10:21;19.30;;;9.83;;
5127;SDS011;2582;48.770;9.190;2023-02-16T10:13:12;13.77;;;10.27;;
5127;SDS011;2582;48.770;9.190;2023-02-16T10:15:40;11.80;;;9.17;;
5127;SDS011;2582;48.770;9.190;2023-02-16T10:20:53;12.63;;;8.60;;
5127;SDS011;2582;48.770;9.190;2023-02-16T10:23:25;13.90;;;9.40;;
5127;SDS011;2582;48.770;9.190;2023-02-16T10:29:07;9.93;;;8.87;;
5127;SDS011;2582;48.770;9.190;2023-02-16T10:31:41;11.10;;;8.70;;
5127;SDS011;2582;48.770;9.190;2023-02-16T10:34:50;9.00;;;8.10;;
5127;SDS011;2582;48.770;9.190;2023-02-16T10:37:56;12.90;;;8.57;;
5127;SDS011;2582;48.770;9.190;2023-02-16T10:40:35;9.60;;;7.67;;
5127;SDS011;2582;48.770;9.190;2023-02-16T10:43:09;10.40;;;7.87;;
5127;SDS011;2582;48.770;9.190;2023-02-16T10:46:02;13.30;;;7.93;;
5127;SDS011;2582;48.770;9.190;2023-02-16T10:48:29;8.00;;;7.20;;
5127;SDS011;2582;48.770;9.190;2023-02-16T10:51:04;10.33;;;8.63;;
5127;SDS011;2582;48.770;9.190;2023-02-16T10:53:35;12.87;;;7.90;;
5127;SDS011;2582;48.770;9.190;2023-02-16T10:59:19;12.30;;;7.80;;
5127;SDS011;2582;48.770;9.190;2023-02-16T11:01:56;11.13;;;7.60;;
5127;SDS011;2582;48.770;9.190;2023-02-16T11:04:30;9.27;;;7.20;;
5127;SDS011;2582;48.770;9.190;2023-02-16T11:07:09;19.13;;;8.70;;
5127;SDS011;2582;48.770;9.190;2023-02-16T11:09:36;11.57;;;7.30;;
5127;SDS011;2582;48.770;9.190;2023-02-16T11:13:04;10.83;;;7.20;;
5127;SDS011;2582;48.770;9.190;2023-02-16T11:15:05;10.30;;;6.57;;
5127;SDS011;2582;48.770;9.190;2023-02-16T11:17:48;10.13;;;7.90;;
5127;SDS011;2582;48.770;9.190;2023-02-16T11:20:30;12.07;;;6.80;;
5127;SDS011;2582;48.770;9.190;2023-02-16T11:23:25;8.10;;;6.50;;
5127;SDS011;2582;48.770;9.190;2023-02-16T11:25:53;10.00;;;7.00;;
5127;SDS011;2582;48.770;9.190;2023-02-16T11:30:59;9.57;;;6.63;;
5127;SDS011;2582;48.770;9.190;2023-02-16T11:33:27;8.07;;;6.00;;
5127;SDS011;2582;48.770;9.190;2023-02-16T11:35:54;6.43;;;5.23;;
5127;SDS011;2582;48.770;9.190;2023-02-16T11:40:54;6.73;;;4.87;;
5127;SDS011;2582;48.770;9.190;2023-02-16T11:43:21;11.60;;;5.60;;
5127;SDS011;2582;48.770;9.190;2023-02-16T11:46:00;8.83;;;7.27;;
5127;SDS011;2582;48.770;9.190;2023-02-16T11:48:33;11.60;;;7.53;;
5127;SDS011;2582;48.770;9.190;2023-02-16T11:51:02;17.43;;;10.73;;
5127;SDS011;2582;48.770;9.190;2023-02-16T11:53:36;24.53;;;11.47;;
5127;SDS011;2582;48.770;9.190;2023-02-16T11:56:12;15.90;;;12.13;;
5127;SDS011;2582;48.770;9.190;2023-02-16T12:07:25;14.80;;;11.20;;
5127;SDS011;2582;48.770;9.190;2023-02-16T12:10:05;11.47;;;9.70;;
5127;SDS011;2582;48.770;9.190;2023-02-16T12:15:24;14.90;;;10.40;;
5127;SDS011;2582;48.770;9.190;2023-02-16T12:18:02;14.73;;;10.20;;
5127;SDS011;2582;48.770;9.190;2023-02-16T12:23:27;14.83;;;9.80;;
5127;SDS011;2582;48.770;9.190;2023-02-16T12:29:04;17.40;;;9.77;;
5127;SDS011;2582;48.770;9.190;2023-02-16T12:34:54;13.50;;;9.73;;
5127;SDS011;2582;48.770;9.190;2023-02-16T12:37:42;10.90;;;8.93;;
5127;SDS011;2582;48.770;9.190;2023-02-16T12:45:22;11.77;;;9.03;;
5127;SDS011;2582;48.770;9.190;2023-02-16T12:50:28;12.90;;;8.00;;
5127;SDS011;2582;48.770;9.190;2023-02-16T12:53:03;9.90;;;8.50;;
5127;SDS011;2582;48.770;9.190;2023-02-16T12:55:37;19.80;;;9.50;;
5127;SDS011;2582;48.770;9.190;2023-02-16T13:01:11;15.40;;;9.03;;
5127;SDS011;2582;48.770;9.190;2023-02-16T13:03:48;13.93;;;8.73;;
5127;SDS011;2582;48.770;9.190;2023-02-16T13:06:35;13.83;;;8.90;;
5127;SDS011;2582;48.770;9.190;2023-02-16T13:09:09;10.20;;;8.20;;
5127;SDS011;2582;48.770;9.190;2023-02-16T13:11:48;9.83;;;8.83;;
5127;SDS011;2582;48.770;9.190;2023-02-16T13:14:21;10.90;;;8.47;;
5127;SDS011;2582;48.770;9.190;2023-02-16T13:19:22;12.47;;;8.40;;
5127;SDS011;2582;48.770;9.190;2023-02-16T13:32:59;9.37;;;7.50;;
5127;SDS011;2582;48.770;9.190;2023-02-16T13:35:52;13.90;;;9.10;;
5127;SDS011;2582;48.770;9.190;2023-02-16T13:44:15;11.93;;;8.20;;
5127;SDS011;2582;48.770;9.190;2023-02-16T13:46:45;11.57;;;8.63;;
5127;SDS011;2582;48.770;9.190;2023-02-16T13:52:07;14.97;;;9.57;;
5127;SDS011;2582;48.770;9.190;2023-02-16T13:54:52;11.37;;;8.57;;
5127;SDS011;2582;48.770;9.190;2023-02-16T14:02:57;12.27;;;8.83;;
5127;SDS011;2582;48.770;9.190;2023-02-16T14:05:27;9.57;;;8.57;;
5127;SDS011;2582;48.770;9.190;2023-02-16T14:18:38;12.83;;;9.67;;
5127;SDS011;2582;48.770;9.190;2023-02-16T14:21:15;15.40;;;9.40;;
5127;SDS011;2582;48.770;9.190;2023-02-16T14:23:43;12.00;;;8.40;;
5127;SDS011;2582;48.770;9.190;2023-02-16T14:26:18;11.00;;;9.00;;
5127;SDS011;2582;48.770;9.190;2023-02-16T14:28:50;11.97;;;9.00;;
5127;SDS011;2582;48.770;9.190;2023-02-16T14:31:31;18.90;;;9.70;;
5127;SDS011;2582;48.770;9.190;2023-02-16T14:34:10;11.57;;;8.70;;
5127;SDS011;2582;48.770;9.190;2023-02-16T14:39:40;11.80;;;8.97;;
5127;SDS011;2582;48.770;9.190;2023-02-16T14:42:15;13.70;;;9.27;;
5127;SDS011;2582;48.770;9.190;2023-02-16T14:58:44;14.40;;;9.80;;
5127;SDS011;2582;48.770;9.190;2023-02-16T15:01:23;10.53;;;9.17;;
5127;SDS011;2582;48.770;9.190;2023-02-16T15:03:52;12.00;;;9.67;;
5127;SDS011;2582;48.770;9.190;2023-02-16T15:06:22;18.70;;;10.23;;
5127;SDS011;2582;48.770;9.190;2023-02-16T15:09:20;15.93;;;10.70;;
5127;SDS011;2582;48.770;9.190;2023-02-16T15:14:36;22.00;;;11.47;;
5127;SDS011;2582;48.770;9.190;2023-02-16T15:17:25;19.13;;;10.13;;
5127;SDS011;2582;48.770;9.190;2023-02-16T15:22:53;15.40;;;9.00;;
5127;SDS011;2582;48.770;9.190;2023-02-16T15:27:52;14.57;;;8.90;;
5127;SDS011;2582;48.770;9.190;2023-02-16T15:30:33;16.47;;;9.10;;
5127;SDS011;2582;48.770;9.190;2023-02-16T15:33:02;18.13;;;8.67;;
5127;SDS011;2582;48.770;9.190;2023-02-16T15:35:53;15.10;;;8.60;;
5127;SDS011;2582;48.770;9.190;2023-02-16T15:38:22;17.07;;;8.83;;
5127;SDS011;2582;48.770;9.190;2023-02-16T15:40:52;18.30;;;8.50;;
5127;SDS011;2582;48.770;9.190;2023-02-16T15:45:51;14.77;;;8.57;;
5127;SDS011;2582;48.770;9.190;2023-02-16T15:48:23;16.10;;;8.80;;
5127;SDS011;2582;48.770;9.190;2023-02-16T15:50:49;12.93;;;8.80;;
5127;SDS011;2582;48.770;9.190;2023-02-16T15:53:31;15.50;;;8.10;;
5127;SDS011;2582;48.770;9.190;2023-02-16T15:56:00;15.30;;;8.70;;
5127;SDS011;2582;48.770;9.190;2023-02-16T15:58:28;12.57;;;8.23;;
5127;SDS011;2582;48.770;9.190;2023-02-16T16:00:56;10.73;;;7.33;;
5127;SDS011;2582;48.770;9.190;2023-02-16T16:03:22;12.30;;;6.47;;
5127;SDS011;2582;48.770;9.190;2023-02-16T16:06:06;12.10;;;6.83;;
5127;SDS011;2582;48.770;9.190;2023-02-16T16:08:32;7.73;;;5.70;;
5127;SDS011;2582;48.770;9.190;2023-02-16T16:10:58;7.57;;;6.67;;
5127;SDS011;2582;48.770;9.190;2023-02-16T16:13:25;11.10;;;6.43;;
5127;SDS011;2582;48.770;9.190;2023-02-16T16:15:54;7.07;;;5.60;;
5127;SDS011;2582;48.770;9.190;2023-02-16T16:21:11;6.17;;;4.70;;
5127;SDS011;2582;48.770;9.190;2023-02-16T16:23:39;7.17;;;4.33;;
5127;SDS011;2582;48.770;9.190;2023-02-16T16:26:18;7.00;;;4.70;;
5127;SDS011;2582;48.770;9.190;2023-02-16T16:28:45;13.80;;;5.03;;
5127;SDS011;2582;48.770;9.190;2023-02-16T16:31:15;9.20;;;4.10;;
5127;SDS011;2582;48.770;9.190;2023-02-16T16:33:54;4.30;;;3.90;;
5127;SDS011;2582;48.770;9.190;2023-02-16T16:36:32;6.70;;;4.70;;
5127;SDS011;2582;48.770;9.190;2023-02-16T16:39:09;6.90;;;4.33;;
5127;SDS011;2582;48.770;9.190;2023-02-16T16:41:44;8.20;;;4.60;;
5127;SDS011;2582;48.770;9.190;2023-02-16T16:44:32;10.83;;;5.83;;
5127;SDS011;2582;48.770;9.190;2023-02-16T16:52:49;7.77;;;5.57;;
5127;SDS011;2582;48.770;9.190;2023-02-16T16:55:23;8.53;;;6.00;;
5127;SDS011;2582;48.770;9.190;2023-02-16T16:57:55;9.15;;;5.60;;
5127;SDS011;2582;48.770;9.190;2023-02-16T17:00:24;8.43;;;5.60;;
5127;SDS011;2582;48.770;9.190;2023-02-16T17:02:52;12.33;;;5.30;;
5127;SDS011;2582;48.770;9.190;2023-02-16T17:05:17;5.60;;;4.50;;
5127;SDS011;2582;48.770;9.190;2023-02-16T17:07:43;5.87;;;4.93;;
5127;SDS011;2582;48.770;9.190;2023-02-16T17:10:13;7.80;;;4.40;;
5127;SDS011;2582;48.770;9.190;2023-02-16T17:12:39;6.63;;;5.10;;
5127;SDS011;2582;48.770;9.190;2023-02-16T17:15:05;4.60;;;4.20;;
5127;SDS011;2582;48.770;9.190;2023-02-16T17:17:41;6.47;;;4.00;;
5127;SDS011;2582;48.770;9.190;2023-02-16T17:20:12;10.17;;;5.00;;
5127;SDS011;2582;48.770;9.190;2023-02-16T17:22:38;4.67;;;3.83;;
5127;SDS011;2582;48.770;9.190;2023-02-16T17:25:04;7.33;;;4.60;;
5127;SDS011;2582;48.770;9.190;2023-02-16T17:27:30;5.83;;;5.10;;
5127;SDS011;2582;48.770;9.190;2023-02-16T17:29:55;8.63;;;5.20;;
5127;SDS011;2582;48.770;9.190;2023-02-16T17:32:21;10.23;;;5.03;;
5127;SDS011;2582;48.770;9.190;2023-02-16T17:34:48;5.50;;;4.57;;
5127;SDS011;2582;48.770;9.190;2023-02-16T17:37:13;8.50;;;4.30;;
5127;SDS011;2582;48.770;9.190;2023-02-16T17:39:39;6.07;;;4.50;;
5127;SDS011;2582;48.770;9.190;2023-02-16T17:42:08;6.30;;;4.80;;
5127;SDS011;2582;48.770;9.190;2023-02-16T17:44:35;8.03;;;4.20;;
5127;SDS011;2582;48.770;9.190;2023-02-16T17:47:00;10.13;;;4.47;;
5127;SDS011;2582;48.770;9.190;2023-02-16T17:49:27;6.47;;;4.30;;
5127;SDS011;2582;48.770;9.190;2023-02-16T17:51:52;6.40;;;4.40;;
5127;SDS011;2582;48.770;9.190;2023-02-16T17:54:19;8.60;;;5.47;;
5127;SDS011;2582;48.770;9.190;2023-02-16T17:56:45;7.83;;;4.70;;
5127;SDS011;2582;48.770;9.190;2023-02-16T17:59:11;9.63;;;4.40;;